sensor_id;sensor_type;location;lat;lon;timestamp;P1;durP1;ratioP1;P2;durP2;ratioP2
21110;SDS011;10713;51.912;4.494;2022-09-12T00:00:29;19.75;;;12.18;;
21110;SDS011;10713;51.912;4.494;2022-09-12T00:02:56;15.70;;;11.40;;
21110;SDS011;10713;51.912;4.494;2022-09-12T00:05:22;16.65;;;11.55;;
21110;SDS011;10713;51.912;4.494;2022-09-12T00:07:48;15.73;;;11.52;;
21110;SDS011;10713;51.912;4.494;2022-09-12T00:10:14;16.80;;;11.57;;
21110;SDS011;10713;51.912;4.494;2022-09-12T00:12:39;20.50;;;12.93;;
21110;SDS011;10713;51.912;4.494;2022-09-12T00:15:05;18.33;;;11.77;;
21110;SDS011;10713;51.912;4.494;2022-09-12T00:17:34;18.35;;;12.00;;
21110;SDS011;10713;51.912;4.494;2022-09-12T00:20:02;15.45;;;11.30;;
21110;SDS011;10713;51.912;4.494;2022-09-12T00:22:30;17.88;;;11.52;;
21110;SDS011;10713;51.912;4.494;2022-09-12T00:24:56;15.85;;;11.50;;
21110;SDS011;10713;51.912;4.494;2022-09-12T00:27:21;16.70;;;12.07;;
21110;SDS011;10713;51.912;4.494;2022-09-12T00:29:46;17.85;;;12.02;;
21110;SDS011;10713;51.912;4.494;2022-09-12T00:32:12;19.02;;;12.60;;
21110;SDS011;10713;51.912;4.494;2022-09-12T00:34:37;18.23;;;11.85;;
21110;SDS011;10713;51.912;4.494;2022-09-12T00:37:02;23.73;;;12.77;;
21110;SDS011;10713;51.912;4.494;2022-09-12T00:39:28;20.55;;;12.77;;
21110;SDS011;10713;51.912;4.494;2022-09-12T00:41:53;18.73;;;12.52;;
21110;SDS011;10713;51.912;4.494;2022-09-12T00:49:31;19.25;;;12.93;;
21110;SDS011;10713;51.912;4.494;2022-09-12T00:52:02;21.80;;;12.85;;
21110;SDS011;10713;51.912;4.494;2022-09-12T00:54:35;19.27;;;12.85;;
21110;SDS011;10713;51.912;4.494;2022-09-12T00:57:05;17.98;;;12.70;;
21110;SDS011;10713;51.912;4.494;2022-09-12T00:59:36;18.15;;;12.27;;
21110;SDS011;10713;51.912;4.494;2022-09-12T01:02:08;20.00;;;12.30;;
21110;SDS011;10713;51.912;4.494;2022-09-12T01:04:34;21.42;;;13.18;;
21110;SDS011;10713;51.912;4.494;2022-09-12T01:07:03;22.00;;;12.77;;
21110;SDS011;10713;51.912;4.494;2022-09-12T01:09:30;18.65;;;12.43;;
21110;SDS011;10713;51.912;4.494;2022-09-12T01:11:56;23.17;;;12.63;;
21110;SDS011;10713;51.912;4.494;2022-09-12T01:14:22;20.88;;;13.20;;
21110;SDS011;10713;51.912;4.494;2022-09-12T01:16:48;19.00;;;12.90;;
21110;SDS011;10713;51.912;4.494;2022-09-12T01:19:29;19.98;;;12.90;;
21110;SDS011;10713;51.912;4.494;2022-09-12T01:35:27;21.63;;;13.85;;
21110;SDS011;10713;51.912;4.494;2022-09-12T01:38:12;22.08;;;13.23;;
21110;SDS011;10713;51.912;4.494;2022-09-12T01:40:59;23.92;;;14.07;;
21110;SDS011;10713;51.912;4.494;2022-09-12T01:43:51;20.65;;;13.25;;
21110;SDS011;10713;51.912;4.494;2022-09-12T01:46:35;26.02;;;15.23;;
21110;SDS011;10713;51.912;4.494;2022-09-12T01:54:50;22.25;;;14.27;;
21110;SDS011;10713;51.912;4.494;2022-09-12T01:57:27;22.05;;;14.00;;
21110;SDS011;10713;51.912;4.494;2022-09-12T01:59:57;25.58;;;15.10;;
21110;SDS011;10713;51.912;4.494;2022-09-12T02:02:35;28.33;;;14.48;;
21110;SDS011;10713;51.912;4.494;2022-09-12T02:05:24;27.13;;;15.70;;
21110;SDS011;10713;51.912;4.494;2022-09-12T02:08:15;26.70;;;16.25;;
21110;SDS011;10713;51.912;4.494;2022-09-12T02:11:06;24.27;;;15.30;;
21110;SDS011;10713;51.912;4.494;2022-09-12T02:16:07;25.88;;;15.70;;
21110;SDS011;10713;51.912;4.494;2022-09-12T02:18:37;24.15;;;15.43;;
21110;SDS011;10713;51.912;4.494;2022-09-12T02:21:05;23.90;;;16.23;;
21110;SDS011;10713;51.912;4.494;2022-09-12T02:23:31;24.88;;;15.85;;
21110;SDS011;10713;51.912;4.494;2022-09-12T02:26:02;24.77;;;16.33;;
21110;SDS011;10713;51.912;4.494;2022-09-12T02:28:35;29.10;;;16.80;;
21110;SDS011;10713;51.912;4.494;2022-09-12T02:33:45;31.83;;;16.55;;
21110;SDS011;10713;51.912;4.494;2022-09-12T02:39:00;24.55;;;16.27;;
21110;SDS011;10713;51.912;4.494;2022-09-12T02:41:25;28.02;;;17.17;;
21110;SDS011;10713;51.912;4.494;2022-09-12T02:43:51;27.33;;;16.33;;
21110;SDS011;10713;51.912;4.494;2022-09-12T02:46:19;28.70;;;17.10;;
21110;SDS011;10713;51.912;4.494;2022-09-12T02:48:49;29.40;;;17.30;;
21110;SDS011;10713;51.912;4.494;2022-09-12T02:51:16;28.30;;;16.02;;
21110;SDS011;10713;51.912;4.494;2022-09-12T02:53:42;27.83;;;16.88;;
21110;SDS011;10713;51.912;4.494;2022-09-12T02:56:09;27.67;;;16.55;;
21110;SDS011;10713;51.912;4.494;2022-09-12T02:58:41;28.92;;;16.65;;
21110;SDS011;10713;51.912;4.494;2022-09-12T03:06:34;27.80;;;16.77;;
21110;SDS011;10713;51.912;4.494;2022-09-12T03:09:16;28.08;;;16.20;;
21110;SDS011;10713;51.912;4.494;2022-09-12T03:14:35;26.38;;;16.58;;
21110;SDS011;10713;51.912;4.494;2022-09-12T03:25:11;27.35;;;16.85;;
21110;SDS011;10713;51.912;4.494;2022-09-12T03:28:00;24.05;;;15.23;;
21110;SDS011;10713;51.912;4.494;2022-09-12T03:30:36;26.60;;;15.88;;
21110;SDS011;10713;51.912;4.494;2022-09-12T03:33:09;28.95;;;17.63;;
21110;SDS011;10713;51.912;4.494;2022-09-12T03:35:35;24.08;;;15.93;;
21110;SDS011;10713;51.912;4.494;2022-09-12T03:38:00;29.38;;;16.17;;
21110;SDS011;10713;51.912;4.494;2022-09-12T03:40:26;24.92;;;16.08;;
21110;SDS011;10713;51.912;4.494;2022-09-12T03:42:51;26.83;;;16.40;;
21110;SDS011;10713;51.912;4.494;2022-09-12T03:45:16;27.42;;;17.02;;
21110;SDS011;10713;51.912;4.494;2022-09-12T03:47:42;25.27;;;17.23;;
21110;SDS011;10713;51.912;4.494;2022-09-12T03:50:07;28.75;;;17.48;;
21110;SDS011;10713;51.912;4.494;2022-09-12T03:52:33;29.45;;;16.42;;
21110;SDS011;10713;51.912;4.494;2022-09-12T03:54:58;28.10;;;16.05;;
21110;SDS011;10713;51.912;4.494;2022-09-12T03:57:24;27.77;;;17.02;;
21110;SDS011;10713;51.912;4.494;2022-09-12T03:59:49;28.92;;;17.08;;
21110;SDS011;10713;51.912;4.494;2022-09-12T04:02:15;27.73;;;15.98;;
21110;SDS011;10713;51.912;4.494;2022-09-12T04:04:40;28.73;;;17.23;;
21110;SDS011;10713;51.912;4.494;2022-09-12T04:07:12;24.77;;;16.13;;
21110;SDS011;10713;51.912;4.494;2022-09-12T04:09:37;29.25;;;16.70;;
21110;SDS011;10713;51.912;4.494;2022-09-12T04:12:03;28.58;;;17.35;;
21110;SDS011;10713;51.912;4.494;2022-09-12T04:14:28;27.50;;;16.80;;
21110;SDS011;10713;51.912;4.494;2022-09-12T04:16:54;25.27;;;16.45;;
21110;SDS011;10713;51.912;4.494;2022-09-12T04:19:19;24.08;;;15.68;;
21110;SDS011;10713;51.912;4.494;2022-09-12T04:21:45;32.72;;;17.65;;
21110;SDS011;10713;51.912;4.494;2022-09-12T04:24:10;34.13;;;17.80;;
21110;SDS011;10713;51.912;4.494;2022-09-12T04:26:35;28.10;;;16.90;;
21110;SDS011;10713;51.912;4.494;2022-09-12T04:29:01;29.83;;;17.73;;
21110;SDS011;10713;51.912;4.494;2022-09-12T04:31:26;29.50;;;17.77;;
21110;SDS011;10713;51.912;4.494;2022-09-12T04:33:55;28.10;;;18.48;;
21110;SDS011;10713;51.912;4.494;2022-09-12T04:36:22;33.30;;;18.58;;
21110;SDS011;10713;51.912;4.494;2022-09-12T04:38:49;29.40;;;17.65;;
21110;SDS011;10713;51.912;4.494;2022-09-12T04:41:16;30.75;;;18.63;;
21110;SDS011;10713;51.912;4.494;2022-09-12T04:43:47;30.25;;;18.35;;
21110;SDS011;10713;51.912;4.494;2022-09-12T04:46:16;39.15;;;19.40;;
21110;SDS011;10713;51.912;4.494;2022-09-12T04:48:44;30.02;;;19.10;;
21110;SDS011;10713;51.912;4.494;2022-09-12T04:51:11;30.13;;;18.25;;
21110;SDS011;10713;51.912;4.494;2022-09-12T04:53:39;33.13;;;18.88;;
21110;SDS011;10713;51.912;4.494;2022-09-12T04:56:06;32.40;;;18.80;;
21110;SDS011;10713;51.912;4.494;2022-09-12T04:58:32;31.23;;;18.35;;
21110;SDS011;10713;51.912;4.494;2022-09-12T05:01:06;32.97;;;19.13;;
21110;SDS011;10713;51.912;4.494;2022-09-12T05:03:34;40.17;;;19.60;;
21110;SDS011;10713;51.912;4.494;2022-09-12T05:06:02;29.63;;;18.15;;
21110;SDS011;10713;51.912;4.494;2022-09-12T05:08:29;33.63;;;19.75;;
21110;SDS011;10713;51.912;4.494;2022-09-12T05:10:54;36.00;;;19.92;;
21110;SDS011;10713;51.912;4.494;2022-09-12T05:13:20;31.65;;;19.75;;
21110;SDS011;10713;51.912;4.494;2022-09-12T05:15:55;30.58;;;18.70;;
21110;SDS011;10713;51.912;4.494;2022-09-12T05:18:22;36.92;;;21.10;;
21110;SDS011;10713;51.912;4.494;2022-09-12T05:20:47;35.00;;;21.88;;
21110;SDS011;10713;51.912;4.494;2022-09-12T05:23:12;35.63;;;21.08;;
21110;SDS011;10713;51.912;4.494;2022-09-12T05:25:38;36.72;;;20.15;;
21110;SDS011;10713;51.912;4.494;2022-09-12T05:28:03;36.67;;;20.23;;
21110;SDS011;10713;51.912;4.494;2022-09-12T05:30:28;33.78;;;20.83;;
21110;SDS011;10713;51.912;4.494;2022-09-12T05:32:54;34.85;;;20.98;;
21110;SDS011;10713;51.912;4.494;2022-09-12T05:35:20;37.10;;;20.60;;
21110;SDS011;10713;51.912;4.494;2022-09-12T05:37:45;40.30;;;21.55;;
21110;SDS011;10713;51.912;4.494;2022-09-12T05:40:11;38.53;;;21.98;;
21110;SDS011;10713;51.912;4.494;2022-09-12T05:42:40;39.15;;;21.92;;
21110;SDS011;10713;51.912;4.494;2022-09-12T05:45:05;39.85;;;20.33;;
21110;SDS011;10713;51.912;4.494;2022-09-12T05:47:30;36.83;;;22.00;;
21110;SDS011;10713;51.912;4.494;2022-09-12T05:49:56;41.33;;;21.58;;
21110;SDS011;10713;51.912;4.494;2022-09-12T05:52:23;40.92;;;21.75;;
21110;SDS011;10713;51.912;4.494;2022-09-12T05:54:48;44.83;;;22.73;;
21110;SDS011;10713;51.912;4.494;2022-09-12T05:57:13;40.08;;;22.58;;
21110;SDS011;10713;51.912;4.494;2022-09-12T05:59:39;41.42;;;22.25;;
21110;SDS011;10713;51.912;4.494;2022-09-12T06:02:04;40.00;;;23.05;;
21110;SDS011;10713;51.912;4.494;2022-09-12T06:04:30;39.90;;;22.08;;
21110;SDS011;10713;51.912;4.494;2022-09-12T06:06:55;39.65;;;22.30;;
21110;SDS011;10713;51.912;4.494;2022-09-12T06:09:21;39.80;;;21.27;;
21110;SDS011;10713;51.912;4.494;2022-09-12T06:11:49;37.13;;;20.85;;
21110;SDS011;10713;51.912;4.494;2022-09-12T06:14:16;31.58;;;20.13;;
21110;SDS011;10713;51.912;4.494;2022-09-12T06:16:43;33.80;;;19.33;;
21110;SDS011;10713;51.912;4.494;2022-09-12T06:19:16;36.83;;;19.90;;
21110;SDS011;10713;51.912;4.494;2022-09-12T06:21:43;30.52;;;20.00;;
21110;SDS011;10713;51.912;4.494;2022-09-12T06:24:09;31.15;;;19.27;;
21110;SDS011;10713;51.912;4.494;2022-09-12T06:26:35;29.38;;;17.80;;
21110;SDS011;10713;51.912;4.494;2022-09-12T06:29:01;33.20;;;19.42;;
21110;SDS011;10713;51.912;4.494;2022-09-12T06:31:30;28.67;;;18.85;;
21110;SDS011;10713;51.912;4.494;2022-09-12T06:33:59;31.95;;;18.08;;
21110;SDS011;10713;51.912;4.494;2022-09-12T06:36:28;31.98;;;19.17;;
21110;SDS011;10713;51.912;4.494;2022-09-12T06:39:13;28.83;;;17.10;;
21110;SDS011;10713;51.912;4.494;2022-09-12T06:41:47;30.45;;;18.65;;
21110;SDS011;10713;51.912;4.494;2022-09-12T06:44:16;32.10;;;18.13;;
21110;SDS011;10713;51.912;4.494;2022-09-12T06:46:43;26.10;;;16.50;;
21110;SDS011;10713;51.912;4.494;2022-09-12T06:49:09;29.10;;;18.02;;
21110;SDS011;10713;51.912;4.494;2022-09-12T06:51:35;29.77;;;16.73;;
21110;SDS011;10713;51.912;4.494;2022-09-12T06:54:01;31.48;;;17.65;;
21110;SDS011;10713;51.912;4.494;2022-09-12T06:56:27;27.98;;;17.35;;
21110;SDS011;10713;51.912;4.494;2022-09-12T06:58:54;27.02;;;17.05;;
21110;SDS011;10713;51.912;4.494;2022-09-12T07:01:22;26.58;;;17.17;;
21110;SDS011;10713;51.912;4.494;2022-09-12T07:03:56;26.85;;;16.52;;
21110;SDS011;10713;51.912;4.494;2022-09-12T07:06:24;23.20;;;16.70;;
21110;SDS011;10713;51.912;4.494;2022-09-12T07:08:58;25.00;;;15.93;;
21110;SDS011;10713;51.912;4.494;2022-09-12T07:11:27;23.08;;;16.25;;
21110;SDS011;10713;51.912;4.494;2022-09-12T07:13:56;24.60;;;14.40;;
21110;SDS011;10713;51.912;4.494;2022-09-12T07:16:22;27.67;;;16.52;;
21110;SDS011;10713;51.912;4.494;2022-09-12T07:18:49;28.23;;;17.40;;
21110;SDS011;10713;51.912;4.494;2022-09-12T07:21:15;26.95;;;16.50;;
21110;SDS011;10713;51.912;4.494;2022-09-12T07:23:40;22.55;;;16.23;;
21110;SDS011;10713;51.912;4.494;2022-09-12T07:26:07;22.52;;;16.23;;
21110;SDS011;10713;51.912;4.494;2022-09-12T07:28:34;27.30;;;16.50;;
21110;SDS011;10713;51.912;4.494;2022-09-12T07:31:04;27.15;;;16.75;;
21110;SDS011;10713;51.912;4.494;2022-09-12T07:33:41;24.10;;;16.52;;
21110;SDS011;10713;51.912;4.494;2022-09-12T07:36:09;26.45;;;17.40;;
21110;SDS011;10713;51.912;4.494;2022-09-12T07:38:38;24.88;;;15.88;;
21110;SDS011;10713;51.912;4.494;2022-09-12T07:41:11;21.00;;;15.60;;
21110;SDS011;10713;51.912;4.494;2022-09-12T07:43:43;32.78;;;15.30;;
21110;SDS011;10713;51.912;4.494;2022-09-12T07:46:09;18.85;;;13.63;;
21110;SDS011;10713;51.912;4.494;2022-09-12T07:48:35;21.63;;;14.88;;
21110;SDS011;10713;51.912;4.494;2022-09-12T07:51:02;22.80;;;15.82;;
21110;SDS011;10713;51.912;4.494;2022-09-12T07:53:34;19.58;;;14.27;;
21110;SDS011;10713;51.912;4.494;2022-09-12T07:56:01;22.88;;;15.10;;
21110;SDS011;10713;51.912;4.494;2022-09-12T07:58:28;18.00;;;12.82;;
21110;SDS011;10713;51.912;4.494;2022-09-12T08:01:00;17.63;;;12.10;;
21110;SDS011;10713;51.912;4.494;2022-09-12T08:03:29;20.15;;;14.13;;
21110;SDS011;10713;51.912;4.494;2022-09-12T08:05:59;18.27;;;14.15;;
21110;SDS011;10713;51.912;4.494;2022-09-12T08:08:27;16.92;;;12.75;;
21110;SDS011;10713;51.912;4.494;2022-09-12T08:10:57;15.45;;;11.23;;
21110;SDS011;10713;51.912;4.494;2022-09-12T08:13:23;15.50;;;10.55;;
21110;SDS011;10713;51.912;4.494;2022-09-12T08:15:49;15.30;;;11.40;;
21110;SDS011;10713;51.912;4.494;2022-09-12T08:18:15;12.75;;;10.30;;
21110;SDS011;10713;51.912;4.494;2022-09-12T08:20:40;16.27;;;11.10;;
21110;SDS011;10713;51.912;4.494;2022-09-12T08:23:05;10.87;;;8.93;;
21110;SDS011;10713;51.912;4.494;2022-09-12T08:25:31;15.13;;;10.40;;
21110;SDS011;10713;51.912;4.494;2022-09-12T08:27:58;13.60;;;9.65;;
21110;SDS011;10713;51.912;4.494;2022-09-12T08:30:25;12.18;;;9.10;;
21110;SDS011;10713;51.912;4.494;2022-09-12T08:32:50;12.63;;;9.00;;
21110;SDS011;10713;51.912;4.494;2022-09-12T08:35:16;11.93;;;8.03;;
21110;SDS011;10713;51.912;4.494;2022-09-12T08:37:41;13.57;;;8.50;;
21110;SDS011;10713;51.912;4.494;2022-09-12T08:40:07;9.80;;;8.23;;
21110;SDS011;10713;51.912;4.494;2022-09-12T08:45:21;10.27;;;8.20;;
21110;SDS011;10713;51.912;4.494;2022-09-12T08:47:58;10.75;;;7.22;;
21110;SDS011;10713;51.912;4.494;2022-09-12T08:50:27;10.10;;;7.65;;
21110;SDS011;10713;51.912;4.494;2022-09-12T08:57:58;9.40;;;6.57;;
21110;SDS011;10713;51.912;4.494;2022-09-12T09:00:26;9.13;;;5.60;;
21110;SDS011;10713;51.912;4.494;2022-09-12T09:03:13;10.60;;;6.35;;
21110;SDS011;10713;51.912;4.494;2022-09-12T09:09:04;6.88;;;5.88;;
21110;SDS011;10713;51.912;4.494;2022-09-12T09:14:30;8.00;;;6.30;;
21110;SDS011;10713;51.912;4.494;2022-09-12T09:17:40;7.72;;;6.53;;
21110;SDS011;10713;51.912;4.494;2022-09-12T09:28:33;10.00;;;6.65;;
21110;SDS011;10713;51.912;4.494;2022-09-12T09:31:00;10.00;;;7.40;;
21110;SDS011;10713;51.912;4.494;2022-09-12T09:33:27;10.20;;;6.63;;
21110;SDS011;10713;51.912;4.494;2022-09-12T09:43:42;10.65;;;5.32;;
21110;SDS011;10713;51.912;4.494;2022-09-12T09:46:08;5.35;;;4.40;;
21110;SDS011;10713;51.912;4.494;2022-09-12T09:48:36;5.03;;;3.80;;
21110;SDS011;10713;51.912;4.494;2022-09-12T09:51:05;6.68;;;3.65;;
21110;SDS011;10713;51.912;4.494;2022-09-12T09:56:34;5.20;;;3.40;;
21110;SDS011;10713;51.912;4.494;2022-09-12T09:59:37;4.97;;;3.40;;
21110;SDS011;10713;51.912;4.494;2022-09-12T10:01:58;8.45;;;3.80;;
21110;SDS011;10713;51.912;4.494;2022-09-12T10:04:39;4.68;;;3.30;;
21110;SDS011;10713;51.912;4.494;2022-09-12T10:07:17;6.65;;;3.60;;
21110;SDS011;10713;51.912;4.494;2022-09-12T10:10:02;5.20;;;3.83;;
21110;SDS011;10713;51.912;4.494;2022-09-12T10:12:28;10.85;;;4.40;;
21110;SDS011;10713;51.912;4.494;2022-09-12T10:14:57;14.07;;;4.78;;
21110;SDS011;10713;51.912;4.494;2022-09-12T10:20:03;8.00;;;4.30;;
21110;SDS011;10713;51.912;4.494;2022-09-12T10:22:29;4.82;;;3.28;;
21110;SDS011;10713;51.912;4.494;2022-09-12T10:24:58;6.15;;;4.03;;
21110;SDS011;10713;51.912;4.494;2022-09-12T10:27:25;7.40;;;3.70;;
21110;SDS011;10713;51.912;4.494;2022-09-12T10:29:54;6.00;;;4.40;;
21110;SDS011;10713;51.912;4.494;2022-09-12T10:32:36;7.03;;;4.53;;
21110;SDS011;10713;51.912;4.494;2022-09-12T10:35:23;7.00;;;4.68;;
21110;SDS011;10713;51.912;4.494;2022-09-12T10:40:23;6.85;;;4.20;;
21110;SDS011;10713;51.912;4.494;2022-09-12T10:42:55;6.38;;;4.70;;
21110;SDS011;10713;51.912;4.494;2022-09-12T10:47:50;6.32;;;4.47;;
21110;SDS011;10713;51.912;4.494;2022-09-12T10:50:39;6.60;;;4.63;;
21110;SDS011;10713;51.912;4.494;2022-09-12T10:53:12;9.82;;;4.93;;
21110;SDS011;10713;51.912;4.494;2022-09-12T10:55:38;6.80;;;4.53;;
21110;SDS011;10713;51.912;4.494;2022-09-12T10:58:12;13.27;;;4.38;;
21110;SDS011;10713;51.912;4.494;2022-09-12T11:00:39;7.88;;;4.57;;
21110;SDS011;10713;51.912;4.494;2022-09-12T11:03:15;6.72;;;3.88;;
21110;SDS011;10713;51.912;4.494;2022-09-12T11:05:57;11.25;;;5.60;;
21110;SDS011;10713;51.912;4.494;2022-09-12T11:16:48;6.82;;;4.88;;
21110;SDS011;10713;51.912;4.494;2022-09-12T11:33:45;4.53;;;3.45;;
21110;SDS011;10713;51.912;4.494;2022-09-12T11:36:30;7.03;;;3.53;;
21110;SDS011;10713;51.912;4.494;2022-09-12T11:41:40;6.72;;;3.70;;
21110;SDS011;10713;51.912;4.494;2022-09-12T11:46:58;11.40;;;3.70;;
21110;SDS011;10713;51.912;4.494;2022-09-12T11:49:48;7.13;;;4.10;;
21110;SDS011;10713;51.912;4.494;2022-09-12T11:52:19;7.47;;;3.65;;
21110;SDS011;10713;51.912;4.494;2022-09-12T11:54:59;7.07;;;4.05;;
21110;SDS011;10713;51.912;4.494;2022-09-12T11:57:44;7.65;;;4.07;;
21110;SDS011;10713;51.912;4.494;2022-09-12T12:06:14;7.20;;;4.32;;
21110;SDS011;10713;51.912;4.494;2022-09-12T12:08:43;6.75;;;4.55;;
21110;SDS011;10713;51.912;4.494;2022-09-12T12:11:14;5.05;;;4.10;;
21110;SDS011;10713;51.912;4.494;2022-09-12T12:14:01;10.07;;;4.65;;
21110;SDS011;10713;51.912;4.494;2022-09-12T12:16:31;10.60;;;5.10;;
21110;SDS011;10713;51.912;4.494;2022-09-12T12:18:59;12.50;;;6.32;;
21110;SDS011;10713;51.912;4.494;2022-09-12T12:21:46;10.20;;;5.85;;
21110;SDS011;10713;51.912;4.494;2022-09-12T12:24:23;12.52;;;5.75;;
21110;SDS011;10713;51.912;4.494;2022-09-12T12:47:51;9.85;;;5.07;;
21110;SDS011;10713;51.912;4.494;2022-09-12T12:52:57;9.23;;;5.10;;
21110;SDS011;10713;51.912;4.494;2022-09-12T12:55:27;11.05;;;5.18;;
21110;SDS011;10713;51.912;4.494;2022-09-12T12:58:00;11.15;;;5.68;;
21110;SDS011;10713;51.912;4.494;2022-09-12T13:00:29;8.82;;;5.07;;
21110;SDS011;10713;51.912;4.494;2022-09-12T13:02:58;7.90;;;5.10;;
21110;SDS011;10713;51.912;4.494;2022-09-12T13:05:25;7.88;;;4.68;;
21110;SDS011;10713;51.912;4.494;2022-09-12T13:07:53;7.60;;;4.28;;
21110;SDS011;10713;51.912;4.494;2022-09-12T13:10:28;8.93;;;3.42;;
21110;SDS011;10713;51.912;4.494;2022-09-12T13:12:55;6.18;;;4.10;;
21110;SDS011;10713;51.912;4.494;2022-09-12T13:18:01;5.97;;;3.53;;
21110;SDS011;10713;51.912;4.494;2022-09-12T13:20:30;9.52;;;4.97;;
21110;SDS011;10713;51.912;4.494;2022-09-12T13:22:59;11.55;;;5.28;;
21110;SDS011;10713;51.912;4.494;2022-09-12T13:25:35;6.53;;;4.57;;
21110;SDS011;10713;51.912;4.494;2022-09-12T13:30:36;8.05;;;5.03;;
21110;SDS011;10713;51.912;4.494;2022-09-12T13:43:53;10.77;;;3.90;;
21110;SDS011;10713;51.912;4.494;2022-09-12T13:46:31;5.65;;;3.90;;
21110;SDS011;10713;51.912;4.494;2022-09-12T13:48:58;5.47;;;4.00;;
21110;SDS011;10713;51.912;4.494;2022-09-12T13:51:30;5.63;;;4.25;;
21110;SDS011;10713;51.912;4.494;2022-09-12T13:53:57;6.60;;;4.00;;
21110;SDS011;10713;51.912;4.494;2022-09-12T13:56:26;12.35;;;3.83;;
21110;SDS011;10713;51.912;4.494;2022-09-12T13:58:56;5.05;;;3.50;;
21110;SDS011;10713;51.912;4.494;2022-09-12T14:01:23;6.63;;;3.45;;
21110;SDS011;10713;51.912;4.494;2022-09-12T14:04:06;6.22;;;4.20;;
21110;SDS011;10713;51.912;4.494;2022-09-12T14:06:58;5.07;;;3.83;;
21110;SDS011;10713;51.912;4.494;2022-09-12T14:09:28;5.80;;;3.70;;
21110;SDS011;10713;51.912;4.494;2022-09-12T14:11:58;4.65;;;3.35;;
21110;SDS011;10713;51.912;4.494;2022-09-12T14:14:26;8.20;;;3.88;;
21110;SDS011;10713;51.912;4.494;2022-09-12T14:16:57;10.75;;;3.58;;
21110;SDS011;10713;51.912;4.494;2022-09-12T14:19:23;4.82;;;3.30;;
21110;SDS011;10713;51.912;4.494;2022-09-12T14:21:51;5.00;;;3.80;;
21110;SDS011;10713;51.912;4.494;2022-09-12T14:24:20;5.30;;;3.20;;
21110;SDS011;10713;51.912;4.494;2022-09-12T14:26:47;6.95;;;3.65;;
21110;SDS011;10713;51.912;4.494;2022-09-12T14:29:14;4.53;;;3.15;;
21110;SDS011;10713;51.912;4.494;2022-09-12T14:31:41;4.50;;;3.35;;
21110;SDS011;10713;51.912;4.494;2022-09-12T14:34:08;7.60;;;3.50;;
21110;SDS011;10713;51.912;4.494;2022-09-12T14:36:44;4.72;;;3.20;;
21110;SDS011;10713;51.912;4.494;2022-09-12T14:39:19;11.55;;;5.05;;
21110;SDS011;10713;51.912;4.494;2022-09-12T14:41:48;4.00;;;3.10;;
21110;SDS011;10713;51.912;4.494;2022-09-12T14:44:16;12.38;;;3.50;;
21110;SDS011;10713;51.912;4.494;2022-09-12T14:46:52;6.57;;;3.88;;
21110;SDS011;10713;51.912;4.494;2022-09-12T14:49:33;6.22;;;4.03;;
21110;SDS011;10713;51.912;4.494;2022-09-12T14:52:01;7.05;;;3.83;;
21110;SDS011;10713;51.912;4.494;2022-09-12T14:59:28;4.72;;;3.58;;
21110;SDS011;10713;51.912;4.494;2022-09-12T15:04:38;5.07;;;3.50;;
21110;SDS011;10713;51.912;4.494;2022-09-12T15:09:57;6.20;;;3.92;;
21110;SDS011;10713;51.912;4.494;2022-09-12T15:12:24;8.15;;;3.70;;
21110;SDS011;10713;51.912;4.494;2022-09-12T15:14:49;6.95;;;3.45;;
21110;SDS011;10713;51.912;4.494;2022-09-12T15:17:15;8.57;;;4.15;;
21110;SDS011;10713;51.912;4.494;2022-09-12T15:19:40;6.18;;;4.75;;
21110;SDS011;10713;51.912;4.494;2022-09-12T15:22:06;9.35;;;4.20;;
21110;SDS011;10713;51.912;4.494;2022-09-12T15:24:35;6.20;;;3.83;;
21110;SDS011;10713;51.912;4.494;2022-09-12T15:27:04;7.85;;;3.78;;
21110;SDS011;10713;51.912;4.494;2022-09-12T15:29:34;4.90;;;4.00;;
21110;SDS011;10713;51.912;4.494;2022-09-12T15:31:59;6.30;;;4.18;;
21110;SDS011;10713;51.912;4.494;2022-09-12T15:34:25;5.13;;;3.63;;
21110;SDS011;10713;51.912;4.494;2022-09-12T15:36:50;5.97;;;3.67;;
21110;SDS011;10713;51.912;4.494;2022-09-12T15:39:15;7.15;;;3.90;;
21110;SDS011;10713;51.912;4.494;2022-09-12T15:41:41;7.13;;;4.00;;
21110;SDS011;10713;51.912;4.494;2022-09-12T15:44:08;6.68;;;3.65;;
21110;SDS011;10713;51.912;4.494;2022-09-12T15:46:36;14.65;;;4.30;;
21110;SDS011;10713;51.912;4.494;2022-09-12T15:49:01;6.03;;;3.75;;
21110;SDS011;10713;51.912;4.494;2022-09-12T15:51:27;4.88;;;3.22;;
21110;SDS011;10713;51.912;4.494;2022-09-12T15:53:52;8.05;;;3.88;;
21110;SDS011;10713;51.912;4.494;2022-09-12T15:56:19;7.53;;;3.90;;
21110;SDS011;10713;51.912;4.494;2022-09-12T15:58:46;6.53;;;4.15;;
21110;SDS011;10713;51.912;4.494;2022-09-12T16:01:13;13.07;;;4.75;;
21110;SDS011;10713;51.912;4.494;2022-09-12T16:03:39;8.95;;;4.20;;
21110;SDS011;10713;51.912;4.494;2022-09-12T16:06:05;5.45;;;4.20;;
21110;SDS011;10713;51.912;4.494;2022-09-12T16:08:33;5.63;;;3.92;;
21110;SDS011;10713;51.912;4.494;2022-09-12T16:11:00;6.18;;;3.85;;
21110;SDS011;10713;51.912;4.494;2022-09-12T16:13:32;7.32;;;4.38;;
21110;SDS011;10713;51.912;4.494;2022-09-12T16:15:58;6.07;;;4.10;;
21110;SDS011;10713;51.912;4.494;2022-09-12T16:18:24;6.78;;;4.03;;
21110;SDS011;10713;51.912;4.494;2022-09-12T16:20:51;8.10;;;4.13;;
21110;SDS011;10713;51.912;4.494;2022-09-12T16:23:17;5.93;;;4.05;;
21110;SDS011;10713;51.912;4.494;2022-09-12T16:25:43;10.68;;;4.13;;
21110;SDS011;10713;51.912;4.494;2022-09-12T16:28:08;5.75;;;3.72;;
21110;SDS011;10713;51.912;4.494;2022-09-12T16:30:33;7.43;;;3.97;;
21110;SDS011;10713;51.912;4.494;2022-09-12T16:32:59;7.70;;;4.20;;
21110;SDS011;10713;51.912;4.494;2022-09-12T16:35:25;7.43;;;4.57;;
21110;SDS011;10713;51.912;4.494;2022-09-12T16:37:50;7.00;;;4.00;;
21110;SDS011;10713;51.912;4.494;2022-09-12T16:40:16;7.45;;;4.00;;
21110;SDS011;10713;51.912;4.494;2022-09-12T16:42:43;8.25;;;4.32;;
21110;SDS011;10713;51.912;4.494;2022-09-12T16:45:09;7.22;;;4.40;;
21110;SDS011;10713;51.912;4.494;2022-09-12T16:47:35;5.43;;;4.00;;
21110;SDS011;10713;51.912;4.494;2022-09-12T16:50:00;12.52;;;4.30;;
21110;SDS011;10713;51.912;4.494;2022-09-12T16:52:26;7.10;;;3.92;;
21110;SDS011;10713;51.912;4.494;2022-09-12T16:54:52;5.40;;;3.60;;
21110;SDS011;10713;51.912;4.494;2022-09-12T16:57:17;5.32;;;3.58;;
21110;SDS011;10713;51.912;4.494;2022-09-12T16:59:43;7.95;;;3.50;;
21110;SDS011;10713;51.912;4.494;2022-09-12T17:02:11;8.52;;;4.28;;
21110;SDS011;10713;51.912;4.494;2022-09-12T17:04:38;7.25;;;4.40;;
21110;SDS011;10713;51.912;4.494;2022-09-12T17:07:03;4.93;;;3.92;;
21110;SDS011;10713;51.912;4.494;2022-09-12T17:09:29;8.77;;;4.30;;
21110;SDS011;10713;51.912;4.494;2022-09-12T17:11:54;7.15;;;4.60;;
21110;SDS011;10713;51.912;4.494;2022-09-12T17:14:20;6.68;;;3.90;;
21110;SDS011;10713;51.912;4.494;2022-09-12T17:16:45;8.90;;;4.93;;
21110;SDS011;10713;51.912;4.494;2022-09-12T17:19:16;7.75;;;4.28;;
21110;SDS011;10713;51.912;4.494;2022-09-12T17:21:44;6.97;;;3.70;;
21110;SDS011;10713;51.912;4.494;2022-09-12T17:24:11;8.25;;;5.53;;
21110;SDS011;10713;51.912;4.494;2022-09-12T17:26:37;6.32;;;4.20;;
21110;SDS011;10713;51.912;4.494;2022-09-12T17:29:02;7.55;;;4.28;;
21110;SDS011;10713;51.912;4.494;2022-09-12T17:31:29;5.97;;;4.18;;
21110;SDS011;10713;51.912;4.494;2022-09-12T17:33:58;6.97;;;4.38;;
21110;SDS011;10713;51.912;4.494;2022-09-12T17:36:24;6.30;;;4.30;;
21110;SDS011;10713;51.912;4.494;2022-09-12T17:38:51;15.10;;;9.40;;